Time;durP1;ratioP1;P1;durP2;ratioP2;P2;SDS_P1;SDS_P2;PMS_P1;PMS_P2;Temp;Humidity;BMP_temperature;BMP_pressure;BME280_temperature;BME280_humidity;BME280_pressure;Samples;Min_cycle;Max_cycle;Signal;HPM_P1;HPM_P2
2023/02/07 00:00:18;;;;;;;11.53;10.57;;;5.00;98.70;;;;;;10568526;27;20250;-79
2023/02/07 00:05:22;;;;;;;11.07;10.17;;;5.00;95.00;;;;;;10584835;27;20311;-78
2023/02/07 00:10:24;;;;;;;11.50;10.57;;;4.80;93.70;;;;;;10566150;27;20464;-78
2023/02/07 00:15:28;;;;;;;11.35;10.35;;;4.30;94.10;;;;;;10583395;27;20190;-77
2023/02/07 00:20:31;;;;;;;11.57;10.50;;;4.00;94.40;;;;;;10570669;27;20228;-79
2023/02/07 00:25:33;;;;;;;12.70;11.50;;;3.90;95.20;;;;;;10591078;27;20256;-76
2023/02/07 00:30:35;;;;;;;11.43;10.33;;;3.70;94.40;;;;;;10570440;27;20227;-78
2023/02/07 00:35:42;;;;;;;11.23;10.13;;;3.50;94.50;;;;;;10578304;27;20218;-78
2023/02/07 00:40:44;;;;;;;10.53;9.53;;;3.30;95.40;;;;;;10579484;27;20690;-76
2023/02/07 00:45:46;;;;;;;12.10;10.87;;;3.10;94.80;;;;;;10591156;27;20290;-74
2023/02/07 00:50:49;;;;;;;8.57;7.90;;;2.90;95.30;;;;;;10563292;27;20238;-77
2023/02/07 00:55:53;;;;;;;11.60;10.50;;;2.90;96.10;;;;;;10539161;27;20204;-77
2023/02/07 01:00:55;;;;;;;12.00;10.80;;;2.90;96.90;;;;;;10557749;27;20219;-78
2023/02/07 01:05:58;;;;;;;11.77;10.60;;;3.00;97.40;;;;;;10558180;27;20258;-79
2023/02/07 01:11:03;;;;;;;12.00;10.90;;;3.10;95.30;;;;;;10558832;27;20808;-79
2023/02/07 01:16:05;;;;;;;12.52;11.43;;;3.10;97.30;;;;;;10544993;27;20204;-76
2023/02/07 01:21:16;;;;;;;15.27;13.77;;;3.30;96.90;;;;;;10561317;27;20242;-79
2023/02/07 01:26:18;;;;;;;14.07;12.70;;;3.30;97.40;;;;;;10544817;27;20234;-79
2023/02/07 01:31:21;;;;;;;13.13;12.03;;;3.30;97.90;;;;;;10559598;27;20230;-79
2023/02/07 01:36:26;;;;;;;14.13;12.63;;;3.30;97.70;;;;;;10546619;27;20238;-77
2023/02/07 01:41:28;;;;;;;14.43;13.13;;;3.20;96.70;;;;;;10545903;27;20223;-77
2023/02/07 01:46:31;;;;;;;14.55;13.20;;;3.10;97.30;;;;;;10566777;27;20234;-79
2023/02/07 01:51:36;;;;;;;17.30;15.60;;;3.20;97.70;;;;;;10563347;22;20602;-79
2023/02/07 01:56:42;;;;;;;15.93;14.43;;;3.30;96.40;;;;;;10513816;28;20203;-79
2023/02/07 02:01:46;;;;;;;17.13;15.50;;;3.10;96.20;;;;;;10483456;28;20707;-80
2023/02/07 02:06:49;;;;;;;17.23;15.43;;;3.20;95.80;;;;;;10475718;28;20333;-79
2023/02/07 02:12:22;;;;;;;16.57;14.97;;;3.30;97.00;;;;;;10480178;28;20711;-80
2023/02/07 02:17:31;;;;;;;17.93;16.10;;;3.20;97.60;;;;;;10443148;28;20208;-79
2023/02/07 02:23:09;;;;;;;19.90;15.87;;;3.10;96.60;;;;;;10478721;28;20235;-78
2023/02/07 02:28:41;;;;;;;16.73;15.10;;;3.00;96.80;;;;;;10476252;28;20679;-79
2023/02/07 02:33:53;;;;;;;16.00;14.48;;;3.10;97.10;;;;;;10477932;28;20200;-80
2023/02/07 02:39:07;;;;;;;19.07;17.20;;;3.20;94.60;;;;;;10491193;28;20227;-80
2023/02/07 02:44:26;;;;;;;16.43;14.87;;;3.00;96.20;;;;;;10487863;28;20313;-79
2023/02/07 02:49:33;;;;;;;17.47;15.80;;;2.80;95.30;;;;;;10476157;28;20235;-80
2023/02/07 02:54:37;;;;;;;18.40;16.70;;;2.60;96.10;;;;;;10491606;28;20211;-80
2023/02/07 03:00:16;;;;;;;17.95;16.27;;;2.70;96.90;;;;;;10490371;28;20242;-80
2023/02/07 03:05:38;;;;;;;17.60;16.00;;;2.90;96.40;;;;;;10471724;28;20220;-78
2023/02/07 03:10:47;;;;;;;17.43;15.83;;;2.90;93.70;;;;;;10464564;28;20370;-79
2023/02/07 03:16:02;;;;;;;18.00;16.30;;;2.60;95.00;;;;;;10481092;28;20209;-79
2023/02/07 03:21:15;;;;;;;19.30;17.27;;;2.50;95.60;;;;;;10482693;28;20237;-80
2023/02/07 03:26:18;;;;;;;19.27;17.47;;;2.40;93.90;;;;;;10489742;28;20239;-79
2023/02/07 03:31:25;;;;;;;19.80;17.90;;;2.30;93.60;;;;;;10470563;28;20302;-79
2023/02/07 03:36:31;;;;;;;20.60;18.60;;;2.20;95.30;;;;;;10477544;28;20205;-79
2023/02/07 03:41:38;;;;;;;19.63;17.80;;;2.10;96.40;;;;;;10476819;28;20220;-78
2023/02/07 03:46:40;;;;;;;20.70;18.50;;;2.10;96.10;;;;;;10476171;28;20702;-80
2023/02/07 03:51:43;;;;;;;20.73;18.80;;;2.10;96.80;;;;;;10468496;28;20233;-77
2023/02/07 03:56:46;;;;;;;20.40;18.40;;;2.20;96.40;;;;;;10494910;28;20285;-80
2023/02/07 04:01:48;;;;;;;21.63;19.30;;;2.20;94.60;;;;;;10465695;28;20590;-79
2023/02/07 04:06:52;;;;;;;20.42;18.35;;;2.10;96.00;;;;;;10483139;28;20230;-79
2023/02/07 04:11:54;;;;;;;20.33;18.40;;;2.30;96.00;;;;;;10485980;28;20568;-78
2023/02/07 04:16:56;;;;;;;21.77;19.80;;;2.40;95.20;;;;;;10482486;28;20200;-79
2023/02/07 04:22:00;;;;;;;20.87;18.97;;;2.30;96.50;;;;;;10481202;28;21289;-78
2023/02/07 04:27:02;;;;;;;34.20;26.50;;;2.30;96.60;;;;;;10494913;28;20739;-78
2023/02/07 04:32:04;;;;;;;23.10;20.83;;;2.30;95.30;;;;;;10482248;28;20226;-78
2023/02/07 04:37:08;;;;;;;19.53;17.63;;;2.20;96.00;;;;;;10497261;28;20193;-80
2023/02/07 04:42:10;;;;;;;23.73;19.80;;;2.30;95.20;;;;;;10485755;28;20292;-79
2023/02/07 04:47:12;;;;;;;19.13;17.17;;;2.20;94.90;;;;;;10481549;28;20274;-79
2023/02/07 04:52:16;;;;;;;16.50;14.83;;;2.20;94.50;;;;;;10511001;28;20952;-80
2023/02/07 04:57:18;;;;;;;18.10;16.30;;;2.30;94.90;;;;;;10508972;28;20540;-80
2023/02/07 05:02:20;;;;;;;19.43;17.53;;;2.40;94.10;;;;;;10484470;28;20234;-80
2023/02/07 05:07:23;;;;;;;18.57;16.87;;;2.30;95.30;;;;;;10472712;28;20423;-80
2023/02/07 05:12:25;;;;;;;18.47;16.50;;;2.30;93.50;;;;;;10492324;28;20239;-79
2023/02/07 05:17:29;;;;;;;17.03;15.50;;;2.20;94.70;;;;;;10493288;28;20688;-82
2023/02/07 05:22:32;;;;;;;16.47;15.03;;;2.20;94.60;;;;;;10485194;28;20228;-80
2023/02/07 05:27:35;;;;;;;14.53;13.20;;;2.20;94.40;;;;;;10461051;28;20228;-79
2023/02/07 05:37:58;;;;;;;16.25;14.82;;;2.10;92.80;;;;;;10465573;28;20843;-79
2023/02/07 05:43:00;;;;;;;16.50;14.97;;;2.20;92.30;;;;;;10493491;28;20205;-77
2023/02/07 05:48:04;;;;;;;14.73;13.40;;;2.20;93.70;;;;;;10481602;28;20224;-78
2023/02/07 05:53:09;;;;;;;17.15;14.75;;;2.10;93.90;;;;;;10475159;28;20207;-80
2023/02/07 05:58:11;;;;;;;14.73;13.33;;;2.20;93.90;;;;;;10485702;28;20221;-80
2023/02/07 06:03:14;;;;;;;15.40;13.77;;;2.20;93.40;;;;;;10473547;28;20217;-78
2023/02/07 06:08:17;;;;;;;15.80;14.20;;;2.10;93.50;;;;;;10476526;28;20240;-79
2023/02/07 06:13:20;;;;;;;16.60;14.90;;;2.00;93.30;;;;;;10488579;28;20208;-80
2023/02/07 06:18:22;;;;;;;14.40;12.93;;;2.10;94.50;;;;;;10456403;28;20466;-80
2023/02/07 06:23:25;;;;;;;14.60;13.20;;;2.10;93.20;;;;;;10471372;28;20216;-78
2023/02/07 06:28:27;;;;;;;15.43;13.83;;;2.00;93.50;;;;;;10486173;28;20291;-77
2023/02/07 06:33:29;;;;;;;15.17;13.57;;;1.90;92.70;;;;;;10466046;28;20623;-77
2023/02/07 06:38:33;;;;;;;14.80;13.40;;;1.90;93.80;;;;;;10460624;28;20289;-76
2023/02/07 06:43:35;;;;;;;16.10;14.67;;;1.80;93.50;;;;;;10457829;28;20588;-79
2023/02/07 06:48:37;;;;;;;17.47;15.07;;;1.90;92.50;;;;;;10471585;28;20232;-78
2023/02/07 06:53:41;;;;;;;17.50;14.47;;;1.90;93.50;;;;;;10484808;28;20208;-79
2023/02/07 06:58:43;;;;;;;20.20;15.77;;;1.70;93.70;;;;;;10446199;28;20223;-79
2023/02/07 07:03:46;;;;;;;18.33;16.63;;;1.60;93.70;;;;;;10458556;28;20200;-79
2023/02/07 07:08:50;;;;;;;17.30;15.60;;;1.60;93.70;;;;;;10476431;28;20321;-78
2023/02/07 07:13:55;;;;;;;16.27;14.60;;;1.50;94.50;;;;;;10478069;28;20232;-79
2023/02/07 07:18:57;;;;;;;14.33;13.03;;;1.40;93.10;;;;;;10463601;28;20710;-80
2023/02/07 07:24:01;;;;;;;15.73;14.20;;;1.40;92.70;;;;;;10470359;28;20220;-80
2023/02/07 07:29:03;;;;;;;15.70;13.77;;;1.30;93.50;;;;;;10474591;28;20239;-77
2023/02/07 07:34:05;;;;;;;18.80;15.83;;;1.20;92.60;;;;;;10484757;28;20204;-79
2023/02/07 07:39:10;;;;;;;16.00;14.50;;;1.10;93.10;;;;;;10487111;28;20235;-79
2023/02/07 07:44:12;;;;;;;15.10;13.70;;;1.00;94.10;;;;;;10487355;28;20204;-79
2023/02/07 07:49:14;;;;;;;16.17;13.80;;;1.00;92.80;;;;;;10492712;28;20228;-79
2023/02/07 07:54:18;;;;;;;16.10;14.30;;;1.00;93.00;;;;;;10486880;28;20302;-79
2023/02/07 07:59:20;;;;;;;15.63;13.90;;;1.10;94.40;;;;;;10466267;28;20224;-79
2023/02/07 08:04:22;;;;;;;15.43;14.03;;;1.20;93.70;;;;;;10492997;28;20239;-79
2023/02/07 08:09:25;;;;;;;17.13;15.50;;;1.10;93.60;;;;;;10474226;28;20219;-79
2023/02/07 08:14:28;;;;;;;18.47;16.67;;;1.10;94.90;;;;;;10484815;28;20203;-78
2023/02/07 08:19:30;;;;;;;18.50;16.80;;;1.20;94.90;;;;;;10470392;28;20216;-78
2023/02/07 08:24:34;;;;;;;18.60;16.90;;;1.20;94.70;;;;;;10463939;28;20635;-78
2023/02/07 08:29:37;;;;;;;19.98;17.90;;;1.30;94.40;;;;;;10446697;28;20227;-78
2023/02/07 08:34:39;;;;;;;24.47;16.97;;;1.50;93.90;;;;;;10462749;28;20219;-78
2023/02/07 08:39:42;;;;;;;17.73;16.13;;;1.70;93.70;;;;;;10461751;28;20236;-78
2023/02/07 08:44:49;;;;;;;16.23;14.63;;;1.70;92.70;;;;;;10479887;28;20213;-78
2023/02/07 08:49:57;;;;;;;15.73;14.20;;;1.70;92.70;;;;;;10463563;28;20252;-78
2023/02/07 08:55:04;;;;;;;17.43;15.23;;;1.70;93.10;;;;;;10482942;28;20201;-78
2023/02/07 09:00:07;;;;;;;15.00;13.60;;;1.80;93.40;;;;;;10463070;28;20224;-78
2023/02/07 09:05:12;;;;;;;13.87;12.47;;;2.00;92.90;;;;;;10486435;28;20281;-80
2023/02/07 09:10:15;;;;;;;14.00;12.60;;;2.00;92.80;;;;;;10461951;28;20244;-77
2023/02/07 09:15:18;;;;;;;16.60;14.83;;;2.30;93.30;;;;;;10461691;28;20720;-79
2023/02/07 09:20:20;;;;;;;16.20;14.50;;;2.40;93.40;;;;;;10458725;28;20217;-78
2023/02/07 09:25:24;;;;;;;16.57;14.87;;;2.40;93.90;;;;;;10461521;28;20226;-78
2023/02/07 09:30:26;;;;;;;17.63;15.97;;;2.50;93.80;;;;;;10489416;28;20934;-79
2023/02/07 09:35:28;;;;;;;15.80;14.20;;;2.60;93.30;;;;;;10453475;28;20209;-79
2023/02/07 09:40:32;;;;;;;16.43;14.73;;;2.70;92.70;;;;;;10451478;28;20319;-78
2023/02/07 09:45:40;;;;;;;15.00;13.63;;;2.80;92.80;;;;;;10477819;28;20221;-79
2023/02/07 09:50:48;;;;;;;16.40;14.80;;;2.90;93.10;;;;;;10476722;28;20240;-78
2023/02/07 09:55:56;;;;;;;15.63;13.93;;;3.00;93.20;;;;;;10459533;28;20310;-78
2023/02/07 10:01:02;;;;;;;16.00;14.30;;;3.00;91.80;;;;;;10461592;28;20235;-78
2023/02/07 10:06:08;;;;;;;16.03;14.43;;;3.10;91.60;;;;;;10478828;28;20240;-78
2023/02/07 10:11:21;;;;;;;15.73;14.10;;;3.10;92.50;;;;;;10460854;28;21028;-78
2023/02/07 10:16:36;;;;;;;15.37;13.97;;;3.10;92.50;;;;;;10443551;28;20251;-78
2023/02/07 10:21:45;;;;;;;16.07;14.10;;;3.10;92.00;;;;;;10460442;28;21549;-78
2023/02/07 10:26:53;;;;;;;16.73;15.13;;;3.10;91.90;;;;;;10465496;28;20272;-80
2023/02/07 10:31:59;;;;;;;15.48;13.98;;;3.10;92.70;;;;;;10476052;28;20307;-79
2023/02/07 10:37:11;;;;;;;14.43;13.07;;;3.40;93.00;;;;;;10459917;28;20265;-79
2023/02/07 10:42:16;;;;;;;15.93;14.53;;;3.60;92.80;;;;;;10459119;28;21037;-81
2023/02/07 10:47:19;;;;;;;15.35;13.95;;;3.70;92.80;;;;;;10459494;28;20222;-77
2023/02/07 10:52:32;;;;;;;16.67;14.80;;;3.80;92.20;;;;;;10476924;28;20259;-77
2023/02/07 10:57:37;;;;;;;14.00;12.60;;;4.00;91.00;;;;;;10477802;28;20224;-77
2023/02/07 11:02:50;;;;;;;14.63;13.23;;;3.90;88.90;;;;;;10477536;28;21244;-76
2023/02/07 11:07:58;;;;;;;14.73;13.23;;;3.80;90.20;;;;;;10446545;28;20220;-78
2023/02/07 11:13:03;;;;;;;16.47;14.77;;;3.70;92.10;;;;;;10449323;28;20208;-78
2023/02/07 11:18:06;;;;;;;15.03;13.83;;;3.70;90.10;;;;;;10466566;28;20232;-77
2023/02/07 11:23:14;;;;;;;17.65;14.43;;;3.60;91.90;;;;;;10480187;28;20212;-77
2023/02/07 11:28:20;;;;;;;19.93;14.33;;;3.80;90.90;;;;;;10465912;28;20238;-78
2023/02/07 11:33:26;;;;;;;16.63;14.40;;;3.90;92.00;;;;;;10484711;28;20323;-77
2023/02/07 11:38:29;;;;;;;17.52;15.75;;;3.90;91.80;;;;;;10483617;28;20220;-78
2023/02/07 11:43:34;;;;;;;18.93;15.20;;;4.10;91.80;;;;;;10466303;28;20205;-79
2023/02/07 11:48:39;;;;;;;16.00;14.37;;;4.10;91.20;;;;;;10461908;28;20286;-77
2023/02/07 11:53:47;;;;;;;15.30;13.87;;;4.10;90.40;;;;;;10490774;28;20200;-79
2023/02/07 11:58:51;;;;;;;15.27;13.83;;;4.00;90.40;;;;;;10467613;28;20242;-79
2023/02/07 12:03:59;;;;;;;16.77;15.20;;;4.10;90.30;;;;;;10464508;28;20209;-79
2023/02/07 12:09:03;;;;;;;16.73;15.30;;;4.10;91.20;;;;;;10485415;28;20696;-79
2023/02/07 12:14:13;;;;;;;17.00;15.40;;;4.10;91.60;;;;;;10466524;28;20562;-79
2023/02/07 12:19:19;;;;;;;16.02;14.63;;;4.10;90.90;;;;;;10485670;28;20999;-79
2023/02/07 12:24:24;;;;;;;16.50;15.10;;;4.30;92.50;;;;;;10467205;28;20383;-79
2023/02/07 12:29:47;;;;;;;15.20;13.60;;;4.50;90.70;;;;;;10466779;28;20322;-79
2023/02/07 12:34:54;;;;;;;16.50;14.97;;;4.40;91.00;;;;;;10484587;28;20207;-78
2023/02/07 12:40:04;;;;;;;15.97;14.20;;;4.40;91.60;;;;;;10481748;28;20217;-78
2023/02/07 12:45:15;;;;;;;9.90;9.10;;;4.50;90.60;;;;;;10480961;28;20672;-81
2023/02/07 12:50:54;;;;;;;14.30;13.00;;;4.50;90.30;;;;;;10501208;28;20235;-81
2023/02/07 12:56:07;;;;;;;12.67;11.43;;;4.60;89.80;;;;;;10471047;28;20296;-82
2023/02/07 13:01:18;;;;;;;12.13;11.13;;;4.60;85.00;;;;;;10473270;28;20870;-81
2023/02/07 13:06:31;;;;;;;11.73;10.73;;;4.60;84.80;;;;;;10460735;28;21301;-82
2023/02/07 13:11:40;;;;;;;10.93;9.85;;;4.80;83.70;;;;;;10473453;28;20747;-81
2023/02/07 13:16:50;;;;;;;12.43;11.13;;;5.00;80.00;;;;;;10481323;28;20203;-81
2023/02/07 13:21:58;;;;;;;13.33;12.13;;;4.90;82.70;;;;;;10470014;28;20321;-81
2023/02/07 13:27:04;;;;;;;11.88;10.65;;;4.80;84.60;;;;;;10474929;28;20232;-82
2023/02/07 13:32:12;;;;;;;13.43;10.70;;;5.00;82.60;;;;;;10477424;28;20291;-82
2023/02/07 13:37:17;;;;;;;12.23;11.13;;;5.30;76.60;;;;;;10495674;28;20830;-81
2023/02/07 13:42:27;;;;;;;12.10;11.10;;;5.10;81.60;;;;;;10478630;28;20331;-82
2023/02/07 13:47:42;;;;;;;11.50;10.40;;;5.00;81.00;;;;;;10475075;28;20220;-81
2023/02/07 13:52:54;;;;;;;12.70;11.60;;;5.00;80.10;;;;;;10499298;22;20400;-79
2023/02/07 14:03:22;;;;;;;11.77;10.53;;;5.10;85.90;;;;;;10452717;28;20204;-79
2023/02/07 14:08:24;;;;;;;12.40;11.20;;;5.20;86.50;;;;;;10435919;28;20653;-80
2023/02/07 14:13:34;;;;;;;12.55;11.43;;;5.10;87.40;;;;;;10435772;28;20205;-79
2023/02/07 14:18:46;;;;;;;12.10;11.00;;;5.30;84.70;;;;;;10470403;28;20307;-81
2023/02/07 14:24:03;;;;;;;11.27;10.30;;;5.50;81.40;;;;;;10457506;28;20439;-79
2023/02/07 14:29:38;;;;;;;12.13;11.03;;;5.60;83.90;;;;;;10455009;28;20284;-78
2023/02/07 14:35:01;;;;;;;11.60;10.45;;;5.50;87.60;;;;;;10453098;28;20209;-82
2023/02/07 14:40:07;;;;;;;11.17;10.00;;;5.60;87.60;;;;;;10452596;28;20226;-79
2023/02/07 14:45:18;;;;;;;12.57;9.67;;;5.60;85.40;;;;;;10439364;28;20246;-79
2023/02/07 14:50:27;;;;;;;10.97;9.80;;;5.50;81.50;;;;;;10481380;28;20541;-79
2023/02/07 14:55:34;;;;;;;10.87;9.97;;;5.40;83.80;;;;;;10479548;28;20208;-80
2023/02/07 15:00:44;;;;;;;10.90;9.97;;;5.40;84.50;;;;;;10479071;28;20225;-80
2023/02/07 15:05:54;;;;;;;10.50;9.50;;;5.30;83.80;;;;;;10490470;28;20227;-80
2023/02/07 15:10:59;;;;;;;10.00;9.00;;;5.30;84.40;;;;;;10510656;28;20355;-80
2023/02/07 15:16:05;;;;;;;10.93;9.53;;;5.30;82.40;;;;;;10499566;28;20845;-81
2023/02/07 15:21:16;;;;;;;9.10;8.30;;;5.30;84.10;;;;;;10473497;28;20232;-80
2023/02/07 15:26:19;;;;;;;9.10;8.30;;;5.30;84.00;;;;;;10502379;28;20292;-78
2023/02/07 15:31:21;;;;;;;9.00;8.10;;;5.30;87.00;;;;;;10469950;28;20285;-80
2023/02/07 15:36:33;;;;;;;9.80;8.88;;;5.40;82.70;;;;;;10483451;28;20200;-82
2023/02/07 15:41:38;;;;;;;9.13;8.23;;;5.50;85.50;;;;;;10467310;28;20312;-80
2023/02/07 15:46:45;;;;;;;8.37;7.70;;;5.50;87.90;;;;;;10481337;28;20209;-79
2023/02/07 15:51:50;;;;;;;9.10;8.10;;;5.40;87.20;;;;;;10481714;28;20239;-77
2023/02/07 15:56:58;;;;;;;9.00;8.10;;;5.40;84.30;;;;;;10481682;28;20196;-78
2023/02/07 16:02:01;;;;;;;8.67;7.87;;;5.30;87.80;;;;;;10474649;28;20221;-79
2023/02/07 16:07:07;;;;;;;9.77;7.55;;;5.30;81.80;;;;;;10480900;28;20688;-78
2023/02/07 16:12:33;;;;;;;9.30;8.30;;;5.40;82.50;;;;;;10502164;28;20223;-78
2023/02/07 16:17:41;;;;;;;13.00;9.23;;;5.40;81.70;;;;;;10471997;28;20258;-78
2023/02/07 16:22:45;;;;;;;10.23;9.30;;;5.20;82.30;;;;;;10446049;28;20219;-78
2023/02/07 16:27:50;;;;;;;11.07;8.50;;;5.10;83.10;;;;;;10478531;28;20213;-79
2023/02/07 16:32:52;;;;;;;9.37;8.37;;;4.90;82.10;;;;;;10474235;28;20353;-78
2023/02/07 16:37:55;;;;;;;13.63;8.27;;;4.60;84.10;;;;;;10496509;28;20509;-79
2023/02/07 16:42:58;;;;;;;9.60;8.70;;;4.40;84.70;;;;;;10484706;28;20306;-79
2023/02/07 16:48:01;;;;;;;8.13;7.33;;;4.30;85.50;;;;;;10505494;28;20228;-81
2023/02/07 16:53:04;;;;;;;13.00;9.97;;;4.30;84.10;;;;;;10481338;28;20466;-81
2023/02/07 16:58:07;;;;;;;11.80;9.50;;;4.20;83.00;;;;;;10507331;28;20284;-79
2023/02/07 17:03:14;;;;;;;10.37;9.43;;;4.00;83.90;;;;;;10502321;28;20234;-80
2023/02/07 17:08:21;;;;;;;9.80;9.00;;;3.80;83.10;;;;;;10493054;28;20213;-80
2023/02/07 17:13:23;;;;;;;12.50;9.68;;;3.60;84.00;;;;;;10461858;28;20683;-80
2023/02/07 17:18:26;;;;;;;9.30;7.80;;;3.60;83.90;;;;;;10459101;28;20204;-80
2023/02/07 17:23:29;;;;;;;13.07;8.20;;;3.60;85.20;;;;;;10478974;28;20688;-80
2023/02/07 17:28:31;;;;;;;9.77;8.60;;;3.60;87.70;;;;;;10501136;28;20236;-80
2023/02/07 17:33:33;;;;;;;10.50;9.47;;;3.60;89.70;;;;;;10501282;28;20695;-79
2023/02/07 17:38:37;;;;;;;10.97;9.97;;;3.60;88.20;;;;;;10466707;28;20248;-81
2023/02/07 17:43:40;;;;;;;10.17;9.27;;;3.50;88.30;;;;;;10481883;28;20297;-80
2023/02/07 17:48:42;;;;;;;10.70;9.60;;;3.50;87.80;;;;;;10473592;28;20220;-81
2023/02/07 17:53:46;;;;;;;11.00;9.90;;;3.50;87.60;;;;;;10469712;28;20255;-81
2023/02/07 17:58:48;;;;;;;12.30;10.60;;;3.50;88.70;;;;;;10456875;28;20266;-81
2023/02/07 18:03:53;;;;;;;11.13;9.33;;;3.60;89.60;;;;;;10466592;28;20574;-81
2023/02/07 18:08:57;;;;;;;10.23;9.23;;;3.60;88.60;;;;;;10493017;28;20248;-81
2023/02/07 18:14:00;;;;;;;12.27;10.17;;;3.60;90.60;;;;;;10497287;28;20201;-80
2023/02/07 18:19:02;;;;;;;10.60;9.67;;;3.50;90.10;;;;;;10509960;28;20666;-79
2023/02/07 18:24:06;;;;;;;12.13;11.00;;;3.50;89.70;;;;;;10467469;28;20222;-78
2023/02/07 18:29:08;;;;;;;13.87;12.57;;;3.40;89.60;;;;;;10466262;28;20240;-80
2023/02/07 18:34:10;;;;;;;14.87;12.50;;;3.30;88.40;;;;;;10494744;28;20302;-81
2023/02/07 18:39:14;;;;;;;14.90;12.25;;;3.20;89.10;;;;;;10468765;28;20331;-80
2023/02/07 18:44:16;;;;;;;14.10;12.70;;;3.30;89.40;;;;;;10449228;28;20291;-78
2023/02/07 18:49:18;;;;;;;14.97;13.47;;;3.30;89.90;;;;;;10460779;28;20377;-80
2023/02/07 18:54:23;;;;;;;12.13;10.93;;;3.20;89.20;;;;;;10430053;28;20295;-80
2023/02/07 18:59:25;;;;;;;12.33;10.87;;;3.10;88.20;;;;;;10418774;28;20224;-79
2023/02/07 19:04:27;;;;;;;11.73;10.57;;;2.90;89.30;;;;;;10448539;28;20201;-76
2023/02/07 19:09:30;;;;;;;12.23;10.50;;;2.80;89.30;;;;;;10456338;28;20217;-79
2023/02/07 19:14:34;;;;;;;12.00;10.80;;;2.70;89.10;;;;;;10472303;28;20196;-80
2023/02/07 19:19:36;;;;;;;13.23;11.47;;;2.70;90.50;;;;;;10445802;28;20271;-82
2023/02/07 19:24:40;;;;;;;13.98;12.48;;;2.80;90.90;;;;;;10417826;28;20513;-82
2023/02/07 19:29:43;;;;;;;14.60;12.83;;;2.90;90.20;;;;;;10456664;28;20726;-82
2023/02/07 19:34:45;;;;;;;17.67;15.70;;;2.90;89.20;;;;;;10450466;28;20223;-82
2023/02/07 19:39:48;;;;;;;14.00;11.60;;;2.70;89.90;;;;;;10425838;28;20234;-83
2023/02/07 19:44:51;;;;;;;15.10;12.30;;;2.60;90.00;;;;;;10456392;28;20699;-81
2023/02/07 19:49:53;;;;;;;13.03;11.73;;;2.50;90.40;;;;;;10501784;22;20638;-81
2023/02/07 19:54:57;;;;;;;13.83;12.43;;;2.40;87.70;;;;;;10609894;27;20619;-81
2023/02/07 19:59:59;;;;;;;16.00;12.33;;;2.30;89.00;;;;;;10606671;27;20256;-81
2023/02/07 20:05:01;;;;;;;14.50;13.03;;;2.40;90.00;;;;;;10580001;27;20245;-82
2023/02/07 20:10:05;;;;;;;15.43;13.90;;;2.40;88.00;;;;;;10590700;27;20227;-81
2023/02/07 20:15:08;;;;;;;19.97;14.43;;;2.20;89.60;;;;;;10598708;27;20250;-81
2023/02/07 20:20:11;;;;;;;14.47;12.77;;;2.10;90.10;;;;;;10619810;27;20231;-82
2023/02/07 20:25:14;;;;;;;14.20;12.70;;;2.10;90.20;;;;;;10605333;27;20195;-82
2023/02/07 20:30:22;;;;;;;15.90;14.20;;;2.00;90.40;;;;;;10617010;27;20230;-81
2023/02/07 20:35:24;;;;;;;17.80;15.90;;;2.00;90.40;;;;;;10587022;27;20200;-82
2023/02/07 20:40:27;;;;;;;15.17;13.30;;;1.90;90.00;;;;;;10586732;27;20220;-83
2023/02/07 20:45:29;;;;;;;14.60;13.07;;;1.80;90.70;;;;;;10585110;27;20205;-80
2023/02/07 20:50:33;;;;;;;15.83;14.33;;;1.80;90.40;;;;;;10594928;27;20252;-81
2023/02/07 20:55:37;;;;;;;13.03;11.77;;;1.70;90.50;;;;;;10611642;27;20204;-80
2023/02/07 21:00:39;;;;;;;16.50;14.90;;;1.70;90.10;;;;;;10637625;27;20250;-81
2023/02/07 21:05:41;;;;;;;15.73;14.23;;;1.60;90.50;;;;;;10589664;27;20448;-81
2023/02/07 21:10:44;;;;;;;15.90;14.17;;;1.60;90.50;;;;;;10609752;27;20662;-81
2023/02/07 21:15:47;;;;;;;19.60;16.97;;;1.60;90.10;;;;;;10585792;27;20235;-81
2023/02/07 21:20:49;;;;;;;21.97;16.90;;;1.50;90.30;;;;;;10574348;27;20248;-81
2023/02/07 21:25:53;;;;;;;14.73;13.20;;;1.40;91.00;;;;;;10575969;27;20199;-81
2023/02/07 21:30:55;;;;;;;15.70;14.07;;;1.50;90.70;;;;;;10581780;27;20778;-81
2023/02/07 21:36:04;;;;;;;13.90;12.52;;;1.60;91.10;;;;;;10577399;27;20259;-80
2023/02/07 21:41:09;;;;;;;14.33;12.80;;;1.70;90.10;;;;;;10564160;27;20298;-80
2023/02/07 21:46:16;;;;;;;14.93;13.33;;;1.60;90.00;;;;;;10583681;27;20203;-82
2023/02/07 21:51:21;;;;;;;14.77;13.23;;;1.50;90.00;;;;;;10599310;27;20226;-80
2023/02/07 21:56:25;;;;;;;16.98;14.75;;;1.40;90.70;;;;;;10597140;27;20226;-79
2023/02/07 22:01:29;;;;;;;16.63;15.03;;;1.40;90.60;;;;;;10582688;27;20268;-80
2023/02/07 22:06:32;;;;;;;16.43;14.70;;;1.40;90.50;;;;;;10593336;27;20261;-80
2023/02/07 22:11:36;;;;;;;16.60;14.87;;;1.30;90.50;;;;;;10615606;27;20268;-79
2023/02/07 22:16:38;;;;;;;15.10;13.60;;;1.20;90.60;;;;;;10572935;27;20207;-80
2023/02/07 22:21:40;;;;;;;15.90;13.30;;;1.00;91.30;;;;;;10593297;27;20219;-80
2023/02/07 22:26:44;;;;;;;14.30;12.80;;;1.00;91.20;;;;;;10570923;27;20259;-80
2023/02/07 22:31:46;;;;;;;14.17;12.77;;;1.00;91.40;;;;;;10593019;27;20219;-81
2023/02/07 22:36:48;;;;;;;13.85;12.52;;;1.00;91.40;;;;;;10555160;27;20209;-80
2023/02/07 22:41:55;;;;;;;11.80;10.70;;;1.10;91.20;;;;;;10574944;27;20242;-80
2023/02/07 22:46:57;;;;;;;14.60;13.07;;;1.20;90.80;;;;;;10559551;28;20205;-80
2023/02/07 22:51:59;;;;;;;12.32;11.02;;;1.00;90.90;;;;;;10593051;27;20249;-81
2023/02/07 22:57:02;;;;;;;15.50;14.00;;;1.10;91.20;;;;;;10640333;27;20540;-81
2023/02/07 23:02:04;;;;;;;12.73;11.47;;;1.20;90.70;;;;;;10620701;27;20242;-81
2023/02/07 23:07:06;;;;;;;17.83;14.80;;;1.10;90.80;;;;;;10649750;27;20201;-81
2023/02/07 23:12:10;;;;;;;21.73;19.50;;;1.00;91.20;;;;;;10622645;27;20222;-81
2023/02/07 23:17:12;;;;;;;18.57;16.57;;;1.00;90.60;;;;;;10586495;27;20223;-80
2023/02/07 23:22:14;;;;;;;19.27;16.87;;;0.80;90.60;;;;;;10597988;27;20702;-82
2023/02/07 23:27:18;;;;;;;15.63;14.03;;;0.70;90.70;;;;;;10595351;27;20195;-81
2023/02/07 23:32:20;;;;;;;18.30;16.40;;;0.60;90.90;;;;;;10577187;27;20261;-81
2023/02/07 23:37:22;;;;;;;18.57;14.27;;;0.60;91.00;;;;;;10607978;27;20203;-79
2023/02/07 23:42:26;;;;;;;16.27;14.57;;;0.50;90.80;;;;;;10573835;27;20302;-80
2023/02/07 23:47:28;;;;;;;20.15;16.13;;;0.50;90.90;;;;;;10613667;27;20727;-81
2023/02/07 23:52:30;;;;;;;17.63;15.73;;;0.60;90.40;;;;;;10578296;27;20217;-80
2023/02/07 23:57:33;;;;;;;15.20;13.60;;;0.50;89.80;;;;;;10596338;27;20229;-81
